sensor_id;sensor_type;location;lat;lon;timestamp;temperature;humidity
21473;DHT22;10898;48.072;11.682;2022-10-29T00:00:58;13.70;99.90
21473;DHT22;10898;48.072;11.682;2022-10-29T00:03:00;13.60;99.90
21473;DHT22;10898;48.072;11.682;2022-10-29T00:05:02;13.50;99.90
21473;DHT22;10898;48.072;11.682;2022-10-29T00:07:03;13.60;99.90
21473;DHT22;10898;48.072;11.682;2022-10-29T00:09:05;13.50;99.90
21473;DHT22;10898;48.072;11.682;2022-10-29T00:11:07;13.50;99.90
21473;DHT22;10898;48.072;11.682;2022-10-29T00:13:09;13.50;99.90
21473;DHT22;10898;48.072;11.682;2022-10-29T00:15:11;13.40;99.90
21473;DHT22;10898;48.072;11.682;2022-10-29T00:17:13;13.40;99.90
21473;DHT22;10898;48.072;11.682;2022-10-29T00:19:16;13.40;99.90
21473;DHT22;10898;48.072;11.682;2022-10-29T00:21:18;13.40;99.90
21473;DHT22;10898;48.072;11.682;2022-10-29T00:23:20;13.40;99.90
21473;DHT22;10898;48.072;11.682;2022-10-29T00:25:22;13.40;99.90
21473;DHT22;10898;48.072;11.682;2022-10-29T00:27:24;13.40;99.90
21473;DHT22;10898;48.072;11.682;2022-10-29T00:29:25;13.40;99.90
21473;DHT22;10898;48.072;11.682;2022-10-29T00:31:27;13.40;99.90
21473;DHT22;10898;48.072;11.682;2022-10-29T00:33:29;13.30;99.90
21473;DHT22;10898;48.072;11.682;2022-10-29T00:35:30;13.30;99.90
21473;DHT22;10898;48.072;11.682;2022-10-29T00:37:33;13.30;99.90
21473;DHT22;10898;48.072;11.682;2022-10-29T00:39:35;13.30;99.90
21473;DHT22;10898;48.072;11.682;2022-10-29T00:41:36;13.20;99.90
21473;DHT22;10898;48.072;11.682;2022-10-29T00:43:39;13.20;99.90
21473;DHT22;10898;48.072;11.682;2022-10-29T00:45:43;13.20;99.90
21473;DHT22;10898;48.072;11.682;2022-10-29T00:47:47;13.20;99.90
21473;DHT22;10898;48.072;11.682;2022-10-29T00:49:52;13.20;99.90
21473;DHT22;10898;48.072;11.682;2022-10-29T00:51:55;13.20;99.90
21473;DHT22;10898;48.072;11.682;2022-10-29T00:53:59;13.20;99.90
21473;DHT22;10898;48.072;11.682;2022-10-29T00:56:02;13.20;99.90
21473;DHT22;10898;48.072;11.682;2022-10-29T00:58:04;13.10;99.90
21473;DHT22;10898;48.072;11.682;2022-10-29T01:00:06;13.10;99.90
21473;DHT22;10898;48.072;11.682;2022-10-29T01:02:08;13.10;99.90
21473;DHT22;10898;48.072;11.682;2022-10-29T01:04:10;13.10;99.90
21473;DHT22;10898;48.072;11.682;2022-10-29T01:06:12;13.10;99.90
21473;DHT22;10898;48.072;11.682;2022-10-29T01:08:14;13.00;99.90
21473;DHT22;10898;48.072;11.682;2022-10-29T01:10:16;13.00;99.90
21473;DHT22;10898;48.072;11.682;2022-10-29T01:20:52;12.90;99.90
21473;DHT22;10898;48.072;11.682;2022-10-29T01:31:47;12.80;99.90
21473;DHT22;10898;48.072;11.682;2022-10-29T01:33:59;12.70;99.90
21473;DHT22;10898;48.072;11.682;2022-10-29T01:40:25;12.60;99.90
21473;DHT22;10898;48.072;11.682;2022-10-29T01:46:42;12.50;99.90
21473;DHT22;10898;48.072;11.682;2022-10-29T01:48:46;12.50;99.90
21473;DHT22;10898;48.072;11.682;2022-10-29T01:50:49;12.50;99.90
21473;DHT22;10898;48.072;11.682;2022-10-29T01:52:52;12.50;99.90
21473;DHT22;10898;48.072;11.682;2022-10-29T01:54:55;12.50;99.90
21473;DHT22;10898;48.072;11.682;2022-10-29T01:56:57;12.40;99.90
21473;DHT22;10898;48.072;11.682;2022-10-29T01:58:59;12.40;99.90
21473;DHT22;10898;48.072;11.682;2022-10-29T02:09:54;12.30;99.90
21473;DHT22;10898;48.072;11.682;2022-10-29T02:14:13;12.20;99.90
21473;DHT22;10898;48.072;11.682;2022-10-29T02:16:16;12.20;99.90
21473;DHT22;10898;48.072;11.682;2022-10-29T02:18:17;12.20;99.90
21473;DHT22;10898;48.072;11.682;2022-10-29T02:20:19;12.10;99.90
21473;DHT22;10898;48.072;11.682;2022-10-29T02:22:21;12.10;99.90
21473;DHT22;10898;48.072;11.682;2022-10-29T02:24:23;12.10;99.90
21473;DHT22;10898;48.072;11.682;2022-10-29T02:26:25;12.10;99.90
21473;DHT22;10898;48.072;11.682;2022-10-29T02:28:26;12.10;99.90
21473;DHT22;10898;48.072;11.682;2022-10-29T02:30:28;12.00;99.90
21473;DHT22;10898;48.072;11.682;2022-10-29T02:32:30;12.00;99.90
21473;DHT22;10898;48.072;11.682;2022-10-29T02:34:33;12.00;99.90
21473;DHT22;10898;48.072;11.682;2022-10-29T02:36:34;12.00;99.90
21473;DHT22;10898;48.072;11.682;2022-10-29T02:38:36;12.00;99.90
21473;DHT22;10898;48.072;11.682;2022-10-29T02:40:38;12.00;99.90
21473;DHT22;10898;48.072;11.682;2022-10-29T02:42:39;12.00;99.90
21473;DHT22;10898;48.072;11.682;2022-10-29T02:44:41;11.90;99.90
21473;DHT22;10898;48.072;11.682;2022-10-29T02:46:43;11.90;99.90
21473;DHT22;10898;48.072;11.682;2022-10-29T02:48:44;11.90;99.90
21473;DHT22;10898;48.072;11.682;2022-10-29T02:50:46;11.90;99.90
21473;DHT22;10898;48.072;11.682;2022-10-29T02:52:48;11.90;99.90
21473;DHT22;10898;48.072;11.682;2022-10-29T02:54:49;11.90;99.90
21473;DHT22;10898;48.072;11.682;2022-10-29T02:56:51;11.90;99.90
21473;DHT22;10898;48.072;11.682;2022-10-29T02:58:53;11.90;99.90
21473;DHT22;10898;48.072;11.682;2022-10-29T03:00:55;11.80;99.90
21473;DHT22;10898;48.072;11.682;2022-10-29T03:02:57;11.80;99.90
21473;DHT22;10898;48.072;11.682;2022-10-29T03:04:59;11.80;99.90
21473;DHT22;10898;48.072;11.682;2022-10-29T03:07:01;11.70;99.90
21473;DHT22;10898;48.072;11.682;2022-10-29T03:09:03;11.70;99.90
21473;DHT22;10898;48.072;11.682;2022-10-29T03:11:05;11.70;99.90
21473;DHT22;10898;48.072;11.682;2022-10-29T03:13:06;11.70;99.90
21473;DHT22;10898;48.072;11.682;2022-10-29T03:15:08;11.70;99.90
21473;DHT22;10898;48.072;11.682;2022-10-29T03:17:10;11.70;99.90
21473;DHT22;10898;48.072;11.682;2022-10-29T03:19:12;11.70;99.90
21473;DHT22;10898;48.072;11.682;2022-10-29T03:21:13;11.60;99.90
21473;DHT22;10898;48.072;11.682;2022-10-29T03:23:15;11.60;99.90
21473;DHT22;10898;48.072;11.682;2022-10-29T03:25:17;11.60;99.90
21473;DHT22;10898;48.072;11.682;2022-10-29T03:27:18;11.60;99.90
21473;DHT22;10898;48.072;11.682;2022-10-29T03:29:20;11.60;99.90
21473;DHT22;10898;48.072;11.682;2022-10-29T03:31:22;11.60;99.90
21473;DHT22;10898;48.072;11.682;2022-10-29T03:33:24;11.60;99.90
21473;DHT22;10898;48.072;11.682;2022-10-29T03:35:29;11.60;99.90
21473;DHT22;10898;48.072;11.682;2022-10-29T03:37:30;11.60;99.90
21473;DHT22;10898;48.072;11.682;2022-10-29T03:39:32;11.60;99.90
21473;DHT22;10898;48.072;11.682;2022-10-29T03:41:34;11.50;99.90
21473;DHT22;10898;48.072;11.682;2022-10-29T03:43:36;11.50;99.90
21473;DHT22;10898;48.072;11.682;2022-10-29T03:45:37;11.50;99.90
21473;DHT22;10898;48.072;11.682;2022-10-29T03:47:39;11.50;99.90
21473;DHT22;10898;48.072;11.682;2022-10-29T03:49:41;11.50;99.90
21473;DHT22;10898;48.072;11.682;2022-10-29T03:51:42;11.50;99.90
21473;DHT22;10898;48.072;11.682;2022-10-29T03:53:44;11.50;99.90
21473;DHT22;10898;48.072;11.682;2022-10-29T03:55:46;11.50;99.90
21473;DHT22;10898;48.072;11.682;2022-10-29T03:57:47;11.50;99.90
21473;DHT22;10898;48.072;11.682;2022-10-29T03:59:49;11.50;99.90
21473;DHT22;10898;48.072;11.682;2022-10-29T04:01:53;11.50;99.90
21473;DHT22;10898;48.072;11.682;2022-10-29T04:03:55;11.50;99.90
21473;DHT22;10898;48.072;11.682;2022-10-29T04:05:57;11.40;99.90
21473;DHT22;10898;48.072;11.682;2022-10-29T04:07:59;11.40;99.90
21473;DHT22;10898;48.072;11.682;2022-10-29T04:10:01;11.40;99.90
21473;DHT22;10898;48.072;11.682;2022-10-29T04:12:02;11.40;99.90
21473;DHT22;10898;48.072;11.682;2022-10-29T04:14:04;11.40;99.90
21473;DHT22;10898;48.072;11.682;2022-10-29T04:16:06;11.40;99.90
21473;DHT22;10898;48.072;11.682;2022-10-29T04:18:08;11.40;99.90
21473;DHT22;10898;48.072;11.682;2022-10-29T04:20:10;11.40;99.90
21473;DHT22;10898;48.072;11.682;2022-10-29T04:22:32;11.40;99.90
21473;DHT22;10898;48.072;11.682;2022-10-29T04:24:53;11.40;99.90
21473;DHT22;10898;48.072;11.682;2022-10-29T04:27:15;11.50;99.90
21473;DHT22;10898;48.072;11.682;2022-10-29T04:29:37;11.50;99.90
21473;DHT22;10898;48.072;11.682;2022-10-29T04:31:38;11.50;99.90
21473;DHT22;10898;48.072;11.682;2022-10-29T04:33:40;11.60;99.90
21473;DHT22;10898;48.072;11.682;2022-10-29T04:35:42;11.60;99.90
21473;DHT22;10898;48.072;11.682;2022-10-29T04:37:43;11.70;99.90
21473;DHT22;10898;48.072;11.682;2022-10-29T04:39:45;11.70;99.90
21473;DHT22;10898;48.072;11.682;2022-10-29T04:41:47;11.70;99.90
21473;DHT22;10898;48.072;11.682;2022-10-29T04:43:49;11.80;99.90
21473;DHT22;10898;48.072;11.682;2022-10-29T04:45:52;11.80;99.90
21473;DHT22;10898;48.072;11.682;2022-10-29T04:47:57;11.80;99.90
21473;DHT22;10898;48.072;11.682;2022-10-29T04:49:59;11.90;99.90
21473;DHT22;10898;48.072;11.682;2022-10-29T04:52:01;11.90;99.90
21473;DHT22;10898;48.072;11.682;2022-10-29T04:54:02;11.90;99.90
21473;DHT22;10898;48.072;11.682;2022-10-29T04:56:04;11.90;99.90
21473;DHT22;10898;48.072;11.682;2022-10-29T04:58:07;11.90;99.90
21473;DHT22;10898;48.072;11.682;2022-10-29T05:00:11;11.90;99.90
21473;DHT22;10898;48.072;11.682;2022-10-29T05:02:19;11.90;99.90
21473;DHT22;10898;48.072;11.682;2022-10-29T05:04:20;11.90;99.90
21473;DHT22;10898;48.072;11.682;2022-10-29T05:06:22;11.90;99.90
21473;DHT22;10898;48.072;11.682;2022-10-29T05:08:24;11.90;99.90
21473;DHT22;10898;48.072;11.682;2022-10-29T05:10:26;12.00;99.90
21473;DHT22;10898;48.072;11.682;2022-10-29T05:12:28;12.00;99.90
21473;DHT22;10898;48.072;11.682;2022-10-29T05:14:30;12.00;99.90
21473;DHT22;10898;48.072;11.682;2022-10-29T05:16:31;12.10;99.90
21473;DHT22;10898;48.072;11.682;2022-10-29T05:18:33;12.10;99.90
21473;DHT22;10898;48.072;11.682;2022-10-29T05:20:37;12.10;99.90
21473;DHT22;10898;48.072;11.682;2022-10-29T05:22:39;12.10;99.90
21473;DHT22;10898;48.072;11.682;2022-10-29T05:24:40;12.10;99.90
21473;DHT22;10898;48.072;11.682;2022-10-29T05:26:42;12.20;99.90
21473;DHT22;10898;48.072;11.682;2022-10-29T05:28:44;12.10;99.90
21473;DHT22;10898;48.072;11.682;2022-10-29T05:30:46;12.20;99.90
21473;DHT22;10898;48.072;11.682;2022-10-29T05:32:48;12.20;99.90
21473;DHT22;10898;48.072;11.682;2022-10-29T05:34:50;12.20;99.90
21473;DHT22;10898;48.072;11.682;2022-10-29T05:36:51;12.20;99.90
21473;DHT22;10898;48.072;11.682;2022-10-29T05:38:53;12.20;99.90
21473;DHT22;10898;48.072;11.682;2022-10-29T05:40:56;12.20;99.90
21473;DHT22;10898;48.072;11.682;2022-10-29T05:42:58;12.20;99.90
21473;DHT22;10898;48.072;11.682;2022-10-29T05:45:00;12.20;99.90
21473;DHT22;10898;48.072;11.682;2022-10-29T05:47:02;12.20;99.90
21473;DHT22;10898;48.072;11.682;2022-10-29T05:49:04;12.20;99.90
21473;DHT22;10898;48.072;11.682;2022-10-29T05:51:05;12.20;99.90
21473;DHT22;10898;48.072;11.682;2022-10-29T05:53:08;12.20;99.90
21473;DHT22;10898;48.072;11.682;2022-10-29T05:55:11;12.20;99.90
21473;DHT22;10898;48.072;11.682;2022-10-29T05:57:12;12.20;99.90
21473;DHT22;10898;48.072;11.682;2022-10-29T05:59:14;12.20;99.90
21473;DHT22;10898;48.072;11.682;2022-10-29T06:01:16;12.20;99.90
21473;DHT22;10898;48.072;11.682;2022-10-29T06:03:20;12.30;99.90
21473;DHT22;10898;48.072;11.682;2022-10-29T06:05:22;12.30;99.90
21473;DHT22;10898;48.072;11.682;2022-10-29T06:07:24;12.30;99.90
21473;DHT22;10898;48.072;11.682;2022-10-29T06:09:26;12.30;99.90
21473;DHT22;10898;48.072;11.682;2022-10-29T06:11:27;12.30;99.90
21473;DHT22;10898;48.072;11.682;2022-10-29T06:13:29;12.30;99.90
21473;DHT22;10898;48.072;11.682;2022-10-29T06:15:31;12.30;99.90
21473;DHT22;10898;48.072;11.682;2022-10-29T06:17:32;12.30;99.90
21473;DHT22;10898;48.072;11.682;2022-10-29T06:19:34;12.40;99.90
21473;DHT22;10898;48.072;11.682;2022-10-29T06:21:36;12.30;99.90
21473;DHT22;10898;48.072;11.682;2022-10-29T06:23:38;12.40;99.90
21473;DHT22;10898;48.072;11.682;2022-10-29T06:25:39;12.40;99.90
21473;DHT22;10898;48.072;11.682;2022-10-29T06:27:41;12.40;99.90
21473;DHT22;10898;48.072;11.682;2022-10-29T06:29:43;12.40;99.90
21473;DHT22;10898;48.072;11.682;2022-10-29T06:31:44;12.40;99.90
21473;DHT22;10898;48.072;11.682;2022-10-29T06:33:46;12.50;99.90
21473;DHT22;10898;48.072;11.682;2022-10-29T06:35:48;12.50;99.90
21473;DHT22;10898;48.072;11.682;2022-10-29T06:37:49;12.50;99.90
21473;DHT22;10898;48.072;11.682;2022-10-29T06:39:51;12.50;99.90
21473;DHT22;10898;48.072;11.682;2022-10-29T06:41:53;12.50;99.90
21473;DHT22;10898;48.072;11.682;2022-10-29T06:43:54;12.50;99.90
21473;DHT22;10898;48.072;11.682;2022-10-29T06:45:56;12.50;99.90
21473;DHT22;10898;48.072;11.682;2022-10-29T06:47:58;12.50;99.90
21473;DHT22;10898;48.072;11.682;2022-10-29T06:50:00;12.50;99.90
21473;DHT22;10898;48.072;11.682;2022-10-29T06:52:01;12.50;99.90
21473;DHT22;10898;48.072;11.682;2022-10-29T06:54:03;12.50;99.90
21473;DHT22;10898;48.072;11.682;2022-10-29T06:56:05;12.50;99.90
21473;DHT22;10898;48.072;11.682;2022-10-29T06:58:10;12.50;99.90
21473;DHT22;10898;48.072;11.682;2022-10-29T07:00:12;12.60;99.90
21473;DHT22;10898;48.072;11.682;2022-10-29T07:02:19;12.60;99.90
21473;DHT22;10898;48.072;11.682;2022-10-29T07:04:21;12.60;99.90
21473;DHT22;10898;48.072;11.682;2022-10-29T07:06:23;12.60;99.90
21473;DHT22;10898;48.072;11.682;2022-10-29T07:08:24;12.60;99.90
21473;DHT22;10898;48.072;11.682;2022-10-29T07:10:27;12.60;99.90
21473;DHT22;10898;48.072;11.682;2022-10-29T07:12:30;12.70;99.90
21473;DHT22;10898;48.072;11.682;2022-10-29T07:14:32;12.70;99.90
21473;DHT22;10898;48.072;11.682;2022-10-29T07:16:33;12.80;99.90
21473;DHT22;10898;48.072;11.682;2022-10-29T07:18:35;12.80;99.90
21473;DHT22;10898;48.072;11.682;2022-10-29T07:20:41;12.80;99.90
21473;DHT22;10898;48.072;11.682;2022-10-29T07:22:45;12.90;99.90
21473;DHT22;10898;48.072;11.682;2022-10-29T07:24:46;12.90;99.90
21473;DHT22;10898;48.072;11.682;2022-10-29T07:26:48;13.00;99.90
21473;DHT22;10898;48.072;11.682;2022-10-29T07:28:50;13.00;99.90
21473;DHT22;10898;48.072;11.682;2022-10-29T07:30:51;13.10;99.90
21473;DHT22;10898;48.072;11.682;2022-10-29T07:32:53;13.20;99.90
21473;DHT22;10898;48.072;11.682;2022-10-29T07:34:55;13.30;99.90
21473;DHT22;10898;48.072;11.682;2022-10-29T07:36:57;13.40;99.90
21473;DHT22;10898;48.072;11.682;2022-10-29T07:38:58;13.50;99.90
21473;DHT22;10898;48.072;11.682;2022-10-29T07:41:01;13.60;99.90
21473;DHT22;10898;48.072;11.682;2022-10-29T07:43:02;13.70;99.90
21473;DHT22;10898;48.072;11.682;2022-10-29T07:45:04;13.90;99.90
21473;DHT22;10898;48.072;11.682;2022-10-29T07:47:06;14.00;99.90
21473;DHT22;10898;48.072;11.682;2022-10-29T07:49:08;14.10;99.90
21473;DHT22;10898;48.072;11.682;2022-10-29T07:51:09;14.20;99.90
21473;DHT22;10898;48.072;11.682;2022-10-29T07:53:11;14.40;99.90
21473;DHT22;10898;48.072;11.682;2022-10-29T07:55:13;14.50;99.90
21473;DHT22;10898;48.072;11.682;2022-10-29T07:57:15;14.60;99.90
21473;DHT22;10898;48.072;11.682;2022-10-29T07:59:16;14.70;99.90
21473;DHT22;10898;48.072;11.682;2022-10-29T08:01:19;14.90;99.90
21473;DHT22;10898;48.072;11.682;2022-10-29T08:03:21;15.00;99.90
21473;DHT22;10898;48.072;11.682;2022-10-29T08:05:23;15.20;99.90
21473;DHT22;10898;48.072;11.682;2022-10-29T08:07:25;15.30;99.90
21473;DHT22;10898;48.072;11.682;2022-10-29T08:09:27;15.40;99.90
21473;DHT22;10898;48.072;11.682;2022-10-29T08:11:31;15.50;99.90
21473;DHT22;10898;48.072;11.682;2022-10-29T08:13:33;15.60;99.90
21473;DHT22;10898;48.072;11.682;2022-10-29T08:15:35;15.70;99.90
21473;DHT22;10898;48.072;11.682;2022-10-29T08:17:37;15.80;99.90
21473;DHT22;10898;48.072;11.682;2022-10-29T08:19:38;15.90;99.90
21473;DHT22;10898;48.072;11.682;2022-10-29T08:21:40;15.90;99.90
21473;DHT22;10898;48.072;11.682;2022-10-29T08:23:42;16.10;99.90
21473;DHT22;10898;48.072;11.682;2022-10-29T08:25:44;16.10;99.90
21473;DHT22;10898;48.072;11.682;2022-10-29T08:27:56;16.20;99.90
21473;DHT22;10898;48.072;11.682;2022-10-29T08:29:57;16.30;99.90
21473;DHT22;10898;48.072;11.682;2022-10-29T08:31:59;16.30;99.90
21473;DHT22;10898;48.072;11.682;2022-10-29T08:34:01;16.40;99.90
21473;DHT22;10898;48.072;11.682;2022-10-29T08:36:08;16.50;99.90
21473;DHT22;10898;48.072;11.682;2022-10-29T08:38:10;16.60;99.90
21473;DHT22;10898;48.072;11.682;2022-10-29T08:40:27;16.60;99.90
21473;DHT22;10898;48.072;11.682;2022-10-29T08:42:41;16.70;99.90
21473;DHT22;10898;48.072;11.682;2022-10-29T08:48:53;16.90;99.90
21473;DHT22;10898;48.072;11.682;2022-10-29T08:53:04;17.10;99.90
21473;DHT22;10898;48.072;11.682;2022-10-29T08:55:34;17.10;99.90
21473;DHT22;10898;48.072;11.682;2022-10-29T08:57:37;17.20;99.90
21473;DHT22;10898;48.072;11.682;2022-10-29T09:02:01;17.30;99.90
21473;DHT22;10898;48.072;11.682;2022-10-29T09:04:03;17.40;99.90
21473;DHT22;10898;48.072;11.682;2022-10-29T09:10:40;17.60;99.90
21473;DHT22;10898;48.072;11.682;2022-10-29T09:15:35;17.70;99.90
21473;DHT22;10898;48.072;11.682;2022-10-29T09:28:14;18.10;99.90
21473;DHT22;10898;48.072;11.682;2022-10-29T09:30:17;18.10;99.90
21473;DHT22;10898;48.072;11.682;2022-10-29T09:32:31;18.20;99.90
21473;DHT22;10898;48.072;11.682;2022-10-29T09:34:41;18.30;99.90
21473;DHT22;10898;48.072;11.682;2022-10-29T09:36:44;18.30;99.90
21473;DHT22;10898;48.072;11.682;2022-10-29T09:38:56;18.40;99.90
21473;DHT22;10898;48.072;11.682;2022-10-29T09:41:00;18.40;99.90
21473;DHT22;10898;48.072;11.682;2022-10-29T09:43:10;18.50;99.90
21473;DHT22;10898;48.072;11.682;2022-10-29T09:45:17;18.60;99.90
21473;DHT22;10898;48.072;11.682;2022-10-29T09:47:24;18.70;99.90
21473;DHT22;10898;48.072;11.682;2022-10-29T09:53:42;19.00;99.90
21473;DHT22;10898;48.072;11.682;2022-10-29T09:55:44;19.10;99.90
21473;DHT22;10898;48.072;11.682;2022-10-29T09:57:53;19.20;99.90
21473;DHT22;10898;48.072;11.682;2022-10-29T09:59:57;19.30;99.90
21473;DHT22;10898;48.072;11.682;2022-10-29T10:01:59;19.30;99.90
21473;DHT22;10898;48.072;11.682;2022-10-29T10:04:03;19.40;99.90
21473;DHT22;10898;48.072;11.682;2022-10-29T10:06:07;19.50;99.90
21473;DHT22;10898;48.072;11.682;2022-10-29T10:08:10;19.60;99.90
21473;DHT22;10898;48.072;11.682;2022-10-29T10:10:19;19.60;99.90
21473;DHT22;10898;48.072;11.682;2022-10-29T10:12:22;19.70;99.90
21473;DHT22;10898;48.072;11.682;2022-10-29T10:14:24;19.80;99.90
21473;DHT22;10898;48.072;11.682;2022-10-29T10:16:28;19.90;99.90
21473;DHT22;10898;48.072;11.682;2022-10-29T10:22:45;20.20;99.90
21473;DHT22;10898;48.072;11.682;2022-10-29T10:24:47;20.30;99.90
21473;DHT22;10898;48.072;11.682;2022-10-29T10:26:48;20.30;99.90
21473;DHT22;10898;48.072;11.682;2022-10-29T10:31:16;20.50;99.90
21473;DHT22;10898;48.072;11.682;2022-10-29T10:33:22;20.60;99.90
21473;DHT22;10898;48.072;11.682;2022-10-29T10:35:29;20.70;99.90
21473;DHT22;10898;48.072;11.682;2022-10-29T10:37:31;20.80;99.90
21473;DHT22;10898;48.072;11.682;2022-10-29T10:39:37;20.90;99.90
21473;DHT22;10898;48.072;11.682;2022-10-29T10:41:40;20.90;99.90
21473;DHT22;10898;48.072;11.682;2022-10-29T10:43:42;21.00;99.90
21473;DHT22;10898;48.072;11.682;2022-10-29T10:45:49;21.10;99.90
21473;DHT22;10898;48.072;11.682;2022-10-29T10:47:52;21.20;99.90
21473;DHT22;10898;48.072;11.682;2022-10-29T10:50:08;21.30;99.90
21473;DHT22;10898;48.072;11.682;2022-10-29T10:52:15;21.40;99.80
21473;DHT22;10898;48.072;11.682;2022-10-29T10:56:31;21.50;97.90
21473;DHT22;10898;48.072;11.682;2022-10-29T10:58:35;21.60;99.20
21473;DHT22;10898;48.072;11.682;2022-10-29T11:00:41;21.70;99.90
21473;DHT22;10898;48.072;11.682;2022-10-29T11:04:45;21.90;99.60
21473;DHT22;10898;48.072;11.682;2022-10-29T11:06:49;21.90;99.90
21473;DHT22;10898;48.072;11.682;2022-10-29T11:08:53;22.00;99.80
21473;DHT22;10898;48.072;11.682;2022-10-29T11:10:58;22.00;99.80
21473;DHT22;10898;48.072;11.682;2022-10-29T11:13:02;22.10;99.90
21473;DHT22;10898;48.072;11.682;2022-10-29T11:19:23;22.20;99.10
21473;DHT22;10898;48.072;11.682;2022-10-29T11:28:41;22.40;98.50
21473;DHT22;10898;48.072;11.682;2022-10-29T11:30:50;22.40;97.00
21473;DHT22;10898;48.072;11.682;2022-10-29T11:35:04;22.50;96.00
21473;DHT22;10898;48.072;11.682;2022-10-29T11:37:15;22.50;97.20
21473;DHT22;10898;48.072;11.682;2022-10-29T11:39:21;22.60;97.40
21473;DHT22;10898;48.072;11.682;2022-10-29T11:41:33;22.60;96.20
21473;DHT22;10898;48.072;11.682;2022-10-29T11:43:37;22.60;95.90
21473;DHT22;10898;48.072;11.682;2022-10-29T11:48:16;22.70;97.30
21473;DHT22;10898;48.072;11.682;2022-10-29T11:56:53;22.80;95.80
21473;DHT22;10898;48.072;11.682;2022-10-29T11:59:00;22.90;95.30
21473;DHT22;10898;48.072;11.682;2022-10-29T12:01:17;22.90;95.20
21473;DHT22;10898;48.072;11.682;2022-10-29T12:10:25;23.10;95.60
21473;DHT22;10898;48.072;11.682;2022-10-29T12:12:24;23.20;95.80
21473;DHT22;10898;48.072;11.682;2022-10-29T12:22:52;23.40;95.30
21473;DHT22;10898;48.072;11.682;2022-10-29T12:29:15;23.40;96.60
21473;DHT22;10898;48.072;11.682;2022-10-29T12:31:24;23.50;96.80
21473;DHT22;10898;48.072;11.682;2022-10-29T12:35:41;23.50;96.30
21473;DHT22;10898;48.072;11.682;2022-10-29T12:37:54;23.50;96.80
21473;DHT22;10898;48.072;11.682;2022-10-29T12:40:02;23.50;97.30
21473;DHT22;10898;48.072;11.682;2022-10-29T12:42:11;23.60;97.30
21473;DHT22;10898;48.072;11.682;2022-10-29T12:44:21;23.60;97.40
21473;DHT22;10898;48.072;11.682;2022-10-29T12:46:35;23.60;97.80
21473;DHT22;10898;48.072;11.682;2022-10-29T12:50:52;23.60;98.00
21473;DHT22;10898;48.072;11.682;2022-10-29T12:53:34;23.60;98.00
21473;DHT22;10898;48.072;11.682;2022-10-29T12:55:25;23.70;98.30
21473;DHT22;10898;48.072;11.682;2022-10-29T12:57:32;23.70;98.30
21473;DHT22;10898;48.072;11.682;2022-10-29T12:59:37;23.70;97.10
21473;DHT22;10898;48.072;11.682;2022-10-29T13:01:42;23.70;96.60
21473;DHT22;10898;48.072;11.682;2022-10-29T13:04:03;23.70;97.40
21473;DHT22;10898;48.072;11.682;2022-10-29T13:08:26;23.70;97.10
21473;DHT22;10898;48.072;11.682;2022-10-29T13:14:55;23.80;97.20
21473;DHT22;10898;48.072;11.682;2022-10-29T13:17:02;23.80;97.10
21473;DHT22;10898;48.072;11.682;2022-10-29T13:19:06;23.80;97.30
21473;DHT22;10898;48.072;11.682;2022-10-29T13:21:09;23.70;96.70
21473;DHT22;10898;48.072;11.682;2022-10-29T13:27:38;23.80;96.90
21473;DHT22;10898;48.072;11.682;2022-10-29T13:31:45;23.80;97.10
21473;DHT22;10898;48.072;11.682;2022-10-29T13:33:47;23.80;96.70
21473;DHT22;10898;48.072;11.682;2022-10-29T13:37:54;23.80;97.40
21473;DHT22;10898;48.072;11.682;2022-10-29T13:42:24;23.70;96.20
21473;DHT22;10898;48.072;11.682;2022-10-29T13:44:26;23.70;95.50
21473;DHT22;10898;48.072;11.682;2022-10-29T13:46:32;23.70;95.30
21473;DHT22;10898;48.072;11.682;2022-10-29T13:48:35;23.70;95.30
21473;DHT22;10898;48.072;11.682;2022-10-29T13:50:37;23.70;94.60
21473;DHT22;10898;48.072;11.682;2022-10-29T13:52:39;23.60;94.80
21473;DHT22;10898;48.072;11.682;2022-10-29T13:56:52;23.60;94.90
21473;DHT22;10898;48.072;11.682;2022-10-29T13:58:54;23.60;95.00
21473;DHT22;10898;48.072;11.682;2022-10-29T14:00:55;23.60;95.20
21473;DHT22;10898;48.072;11.682;2022-10-29T14:03:11;23.50;95.30
21473;DHT22;10898;48.072;11.682;2022-10-29T14:09:58;23.40;95.70
21473;DHT22;10898;48.072;11.682;2022-10-29T14:12:03;23.40;95.50
21473;DHT22;10898;48.072;11.682;2022-10-29T14:14:19;23.30;95.80
21473;DHT22;10898;48.072;11.682;2022-10-29T14:16:28;23.30;96.20
21473;DHT22;10898;48.072;11.682;2022-10-29T14:18:39;23.30;96.30
21473;DHT22;10898;48.072;11.682;2022-10-29T14:20:43;23.30;96.50
21473;DHT22;10898;48.072;11.682;2022-10-29T14:22:54;23.20;96.50
21473;DHT22;10898;48.072;11.682;2022-10-29T14:24:56;23.20;96.80
21473;DHT22;10898;48.072;11.682;2022-10-29T14:27:04;23.20;96.60
21473;DHT22;10898;48.072;11.682;2022-10-29T14:31:15;23.20;96.60
21473;DHT22;10898;48.072;11.682;2022-10-29T14:33:35;23.20;96.90
21473;DHT22;10898;48.072;11.682;2022-10-29T14:35:37;23.10;97.30
21473;DHT22;10898;48.072;11.682;2022-10-29T14:37:39;23.10;96.40
21473;DHT22;10898;48.072;11.682;2022-10-29T14:39:43;23.10;96.50
21473;DHT22;10898;48.072;11.682;2022-10-29T14:41:59;23.00;96.20
21473;DHT22;10898;48.072;11.682;2022-10-29T14:46:10;23.00;96.00
21473;DHT22;10898;48.072;11.682;2022-10-29T14:48:13;22.90;96.20
21473;DHT22;10898;48.072;11.682;2022-10-29T14:50:17;22.90;96.00
21473;DHT22;10898;48.072;11.682;2022-10-29T14:52:30;22.80;96.30
21473;DHT22;10898;48.072;11.682;2022-10-29T14:54:34;22.80;96.30
21473;DHT22;10898;48.072;11.682;2022-10-29T14:56:37;22.70;96.10
21473;DHT22;10898;48.072;11.682;2022-10-29T14:58:40;22.70;96.40
21473;DHT22;10898;48.072;11.682;2022-10-29T15:01:00;22.60;96.50
21473;DHT22;10898;48.072;11.682;2022-10-29T15:03:04;22.60;96.80
21473;DHT22;10898;48.072;11.682;2022-10-29T15:05:21;22.50;97.10
21473;DHT22;10898;48.072;11.682;2022-10-29T15:07:27;22.50;97.30
21473;DHT22;10898;48.072;11.682;2022-10-29T15:09:29;22.30;97.50
21473;DHT22;10898;48.072;11.682;2022-10-29T15:11:35;22.30;97.70
21473;DHT22;10898;48.072;11.682;2022-10-29T15:13:37;22.20;97.70
21473;DHT22;10898;48.072;11.682;2022-10-29T15:15:39;22.20;97.70
21473;DHT22;10898;48.072;11.682;2022-10-29T15:17:58;22.10;98.10
21473;DHT22;10898;48.072;11.682;2022-10-29T15:20:02;22.00;98.20
21473;DHT22;10898;48.072;11.682;2022-10-29T15:22:08;22.00;98.40
21473;DHT22;10898;48.072;11.682;2022-10-29T15:24:13;21.90;99.20